In Rescue
 
Open Full Screen Window  High Contrast Mode
Wind Gusting 14 knots
08
July 13, 2020 9:25 PM CDT
Weather Information
Wind Direction
  100 °
Wind Speed
  08 kt (9 mph)
Wind Gust
  14 kt (16 mph)
Variable Wind
070°
130°
Altimeter
29.87 in
Visibility
10 SM
Temperature
17° C
63° F
Dewpoint
11° C
52° F
Humidity
68%
1hr Rain Fall
00.00 in.
24hr Rain Fall
00.00 in.
Sky Condition
Clear
VFR

METAR KCKC 140225Z AUTO 10008G14KT 079V139 10SM CLR 17/11 A2987 RMK AO2

FAA Disclaimer: The data displayed is for advisory purposes only and is not to be used for flight planning or operations.